Name Reason Length State Admin Date Time Since Location
Hidden-Leaf-Ninja( 76561198255303044 ) Mass RDM In Spawn. 40320 Minutes Lifted XactoLP(76561198207953515) 02-25-17 6 months ago loading
HorseFighter( 76561198178009975 ) 0 Minutes Lifted (Console) 02-17-17 7 months ago loading
Senpai 【= ◈︿◈ =】( 76561198071564395 ) minge 21749 Minutes Lifted RS CoFounder DarkShadow(76561198167815527) 02-16-17 7 months ago loading
i love vegetables( 76561198136399756 ) minge 21765 Minutes Lifted RS CoFounder DarkShadow(76561198167815527) 02-16-17 7 months ago loading
Ajmike( 76561198094818148 ) hacks 0 Minutes Permanent RS CoFounder DarkShadow(76561198167815527) 02-16-17 7 months ago loading
LeLeSiuS NWA( 76561198061848176 ) NLR, Staff Disrespect, Atempt RDM 2880 Minutes Lifted JohnToaster420 ヅ(76561198328941051) 02-15-17 7 months ago loading
ↇarthↇylan40 ━╤デ╦︻( 76561198357566637 ) 0 Minutes Lifted JohnToaster420 ヅ(76561198328941051) 02-15-17 7 months ago loading
ↇarthↇylan40 ━╤デ╦︻( 76561198357566637 ) staff dis and ltap <3 salty 4320 Minutes Lifted OP ♔Salty ヅ(76561198353916374) 02-15-17 7 months ago loading
ↇarthↇylan40 ━╤デ╦︻( 76561198357566637 ) Ltap, Staff Disrespect 99360 Minutes Lifted JohnToaster420 ヅ(76561198328941051) 02-15-17 7 months ago loading
info( 76561198102140978 ) Storing Duped / Spawned in Money | LTAP | Just because your bud hit me off doesn't mean you can escape a ban ;) 0 Minutes Permanent JohnToaster420 ヅ(76561198328941051) 02-15-17 7 months ago loading
ↇarthↇylan40 ━╤デ╦︻( 76561198357566637 ) ltap and staff dis 4320 Minutes Lifted OP ♔Salty ヅ(76561198353916374) 02-15-17 7 months ago loading
ↇarthↇylan40 ━╤デ╦︻( 76561198357566637 ) ltap and staff dis 4320 Minutes Lifted OP ♔Salty ヅ(76561198353916374) 02-15-17 7 months ago loading
ↇarthↇylan40 ━╤デ╦︻( 76561198357566637 ) ltap and staff dis 4320 Minutes Lifted OP ♔Salty ヅ(76561198353916374) 02-15-17 7 months ago loading
ↇarthↇylan40 ━╤デ╦︻( 76561198357566637 ) ltap and staff dis 4320 Minutes Lifted OP ♔Salty ヅ(76561198353916374) 02-15-17 7 months ago loading
ↇarthↇylan40 ━╤デ╦︻( 76561198357566637 ) ltap and staff dis 4320 Minutes Lifted OP ♔Salty ヅ(76561198353916374) 02-15-17 7 months ago loading
ↇarthↇylan40 ━╤デ╦︻( 76561198357566637 ) Disobeying the rules 4320 Minutes Lifted OP ♔Salty ヅ(76561198353916374) 02-15-17 7 months ago loading
ↇarthↇylan40 ━╤デ╦︻( 76561198357566637 ) Foul language and l-tap 4320 Minutes Lifted OP ♔Salty ヅ(76561198353916374) 02-15-17 7 months ago loading
info( 76561198102140978 ) Storing Duped / Spawned in Money | LTAP | Just because your bud hit me off doesn't mean you can escape a ban ;) 0 Minutes Permanent Hagar(76561198145899359) 02-15-17 7 months ago loading
ↇarthↇylan40 ━╤デ╦︻( 76561198357566637 ) l-tap staff diss <3 salty 4320 Minutes Lifted OP ♔Salty ヅ(76561198353916374) 02-15-17 7 months ago loading
ↇarthↇylan40 ━╤デ╦︻( 76561198357566637 ) l-tap staff diss <3 salty 4320 Minutes Lifted OP ♔Salty ヅ(76561198353916374) 02-15-17 7 months ago loading
ↇarthↇylan40 ━╤デ╦︻( 76561198357566637 ) l-tap staff diss <3 salty 4320 Minutes Lifted OP ♔Salty ヅ(76561198353916374) 02-15-17 7 months ago loading
ↇarthↇylan40 ━╤デ╦︻( 76561198357566637 ) l-tap staff diss <3 salty 10080 Minutes Lifted OP ♔Salty ヅ(76561198353916374) 02-15-17 7 months ago loading
ↇarthↇylan40 ━╤デ╦︻( 76561198357566637 ) l-tap staff diss <3 salty 10080 Minutes Lifted OP ♔Salty ヅ(76561198353916374) 02-15-17 7 months ago loading
ↇarthↇylan40 ━╤デ╦︻( 76561198357566637 ) l-tap staff diss <3 salty 10080 Minutes Lifted OP ♔Salty ヅ(76561198353916374) 02-15-17 7 months ago loading
ↇarthↇylan40 ━╤デ╦︻( 76561198357566637 ) l-tap staff diss <3 salty 0 Minutes Lifted OP ♔Salty ヅ(76561198353916374) 02-15-17 7 months ago loading
ↇarthↇylan40 ━╤デ╦︻( 76561198357566637 ) l-tap staff diss <3 salty 0 Minutes Lifted OP ♔Salty ヅ(76561198353916374) 02-15-17 7 months ago loading
>Pythagoras<( 76561198208600033 ) Lyin 0 Minutes Lifted XactoLP(76561198207953515) 02-15-17 7 months ago loading
MusicLover( 76561198353387518 ) Disrespect // Minge/Troll // No intent to rp. appeal at www.neuraxgaming.com -Xacto 30240 Minutes Lifted XactoLP(76561198207953515) 02-15-17 7 months ago loading
Djcammo( 76561198046834149 ) Mass RDM//Minge//No intention to RP 20160 Minutes Lifted RS AT VeLoCiTy(76561198164487426) 02-14-17 7 months ago loading
Djcammo( 76561198046834149 ) Mass RDM//Minge//No intention to RP 4320 Minutes Lifted RS AT VeLoCiTy(76561198164487426) 02-14-17 7 months ago loading
NG Mod | Mitch0305( 76561198170296593 ) Nlring alot. Minge. Comeing back after a kick 30240 Minutes Lifted TM Gor Malone(76561198352802802) 02-14-17 7 months ago loading
NG Mod | Mitch0305( 76561198170296593 ) 0 Minutes Lifted JohnToaster420 ヅ(76561198328941051) 02-14-17 7 months ago loading
JohnToaster420 ヅ( 76561198328941051 ) 0 Minutes Lifted JohnToaster420 ヅ(76561198328941051) 02-14-17 7 months ago loading
EloyDew( 76561198259805078 ) no interest in roleplay :( minge 40320 Minutes Lifted Rem(76561198089791153) 02-14-17 7 months ago loading
NG | ✪ XactoLP( 76561198207953515 ) It Is Time To Calm Down 5 Minutes Lifted JohnToaster420 ヅ(76561198328941051) 02-14-17 7 months ago loading
JohnToaster420 ヅ( 76561198328941051 ) 1 Minutes Lifted XactoLP(76561198207953515) 02-14-17 7 months ago loading
Kenjii( 76561198208600033 ) Don't Expect to avoid a ban, LTAP. 1440 Minutes Lifted XactoLP(76561198207953515) 02-14-17 7 months ago loading
MrDarkn17( 76561198122582172 ) PropPush, Leaving To avoid punishment, LOL 30240 Minutes Lifted OP JohnToaster420 ヅ(76561198328941051) 02-14-17 7 months ago loading
☢DiC☢Caseus( 76561198140579758 ) Stop Being A Fricking Frick Take Some Time To Calm Down 10 Minutes Lifted OP JohnToaster420 ヅ(76561198328941051) 02-14-17 7 months ago loading
Англия Верховный( 76561198093791869 ) LTAP Fuck Off 30240 Minutes Lifted OP JohnToaster420 ヅ(76561198328941051) 02-14-17 7 months ago loading
《▪Slandersop_L( 76561198257057486 ) Cya :) 0 Minutes Permanent NG Fr0nTeS(76561198055757257) 02-14-17 7 months ago loading
samtheman929( 76561198083900316 ) Trolling 1440 Minutes Lifted OP JohnToaster420(76561198328941051) 02-13-17 7 months ago loading
yung harvey( 76561198108347462 ) leaving to avoid punishment - Rem 30240 Minutes Lifted Rem(76561198089791153) 02-13-17 7 months ago loading
TheLegend27( 76561198085849042 ) leaving to avoid punishment - Rem 30240 Minutes Lifted Rem(76561198089791153) 02-13-17 7 months ago loading
SwegWays( 76561198336557185 ) RDM in sit / general minge / no interest in RP - Rem 30240 Minutes Lifted Rem(76561198089791153) 02-13-17 7 months ago loading
JohnToaster420 ヅ( 76561198328941051 ) that's no way to treat a fellow staff member. please cool down a little. 1440 Minutes Lifted Rem(76561198089791153) 02-13-17 7 months ago loading
Undercover Global( 76561198071420707 ) we appreciate your help finding lua exploits, but don't appreciate spam 525600 Minutes 211534 minutes left Rem(76561198089791153) 02-13-17 7 months ago loading
8ḄίΤ ティアラ( 76561198079560356 ) 0 Minutes Permanent (Console) 02-13-17 7 months ago loading
✅Sparky✅( 76561198050197106 ) 0 Minutes Permanent (Console) 02-13-17 7 months ago loading
нация( 76561198059394219 ) scripting after several warnings 30240 Minutes Lifted Rem(76561198089791153) 02-13-17 7 months ago loading
Logicsx™ ハッカー⠀( 76561198170141359 ) attacking adminstrator in sit, rude to staff, didn't come to rp 30240 Minutes Lifted Rem(76561198089791153) 02-13-17 7 months ago loading
MrSquid( 76561198239314438 ) minge / extremely rude / lying / didn't come to rp 30240 Minutes Lifted Rem(76561198089791153) 02-13-17 7 months ago loading
⠀( 76561198101049577 ) 10 minutes should be plenty to change your name. 10 Minutes Lifted Rem(76561198089791153) 02-13-17 7 months ago loading
timmy_ir( 76561198165908467 ) AWarn: Ban Threshold Met 30 Minutes Lifted 02-13-17 7 months ago loading
Ajmike( 76561198094818148 ) hacks 10080 Minutes Lifted ImToRichForYou(76561198353916374) 02-12-17 7 months ago loading
Limes( 76561198156160733 ) stop 1 Minutes Lifted RS AT VeLoCiTy(76561198164487426) 02-12-17 7 months ago loading
african warlord hiziqle( 76561198100744821 ) mass rdm//racist slurs//killing in spawn no intention to rp 20160 Minutes Lifted RS AT VeLoCiTy(76561198164487426) 02-12-17 7 months ago loading
Kizzer( 76561198125052005 ) mass rdm//racist slurs//killing in spawn no intention to rp 30240 Minutes Lifted RS AT VeLoCiTy(76561198164487426) 02-12-17 7 months ago loading
Arran091( 76561198347343198 ) Scripts, cya 0 Minutes Permanent NG Fr0nTeS(76561198055757257) 02-12-17 7 months ago loading
WeeWestyBhoy( 76561198075105514 ) Scripts/hacks/mass rdm 0 Minutes Permanent HorseFighter(76561198178009975) 02-12-17 7 months ago loading
VeLoCiTy_DSyR( 76561198164487426 ) Ill be on in an hour or so xD........cya 60 Minutes Lifted RS AT VeLoCiTy(76561198164487426) 02-12-17 7 months ago loading
⎛⎝Fluffy Guppy⎠⎞( 76561198153159411 ) x3 rdm 20160 Minutes Lifted OP Salty(76561198353916374) 02-12-17 7 months ago loading
VeLoCiTy_DSyR( 76561198164487426 ) !sslay Vel 1 Minutes Lifted RS JohnToaster420(76561198328941051) 02-11-17 7 months ago loading
BlueCalex( 76561198068307582 ) RDM in a sit//failrp//staff dis//mass rdm 5760 Minutes Lifted RS AT VeLoCiTy(76561198164487426) 02-11-17 7 months ago loading
EdoTensey( 76561198294766471 ) LTAP, RDM, Disrespectt 30240 Minutes Lifted TM Gor Malone(76561198352802802) 02-11-17 7 months ago loading
At0mIcSt0rM( 76561198199867015 ) LTAP, RDM, Disrespectt 30240 Minutes Lifted TM Gor Malone(76561198352802802) 02-11-17 7 months ago loading
At0mIcSt0rM( 76561198199867015 ) RDM//NLR//Staff dis//ltap 40320 Minutes Lifted RS AT VeLoCiTy(76561198164487426) 02-11-17 7 months ago loading
WE WUZ..( 76561198109335167 ) scripting & attempted impersonating 0 Minutes Permanent Rem(76561198089791153) 02-11-17 7 months ago loading
LUGOZZI( 76561198251622256 ) RDM / job-abuse / LTAP - apply on neuraxgaming.org - Rem 0 Minutes Permanent Rem(76561198089791153) 02-11-17 7 months ago loading
JohannesNeo( 76561198128601185 ) Stop with the cross we told u before 30 Minutes Lifted RS CoFounder DarkShadow(76561198167815527) 02-11-17 7 months ago loading
XStaRiderX( 76561198047416258 ) Not here to RP prop block Mass minge cya when u grow up :D 7000 Minutes Lifted RS CoFounder DarkShadow(76561198167815527) 02-11-17 7 months ago loading
KLÜM( 76561198188844694 ) reason 240 Minutes Lifted RS AT VeLoCiTy(76561198164487426) 02-11-17 7 months ago loading
D4VY | Revolution Networks ✯( 76561198150253624 ) Staff Dis//no intention to RP//mass rdm 120 Minutes Lifted RS AT VeLoCiTy(76561198164487426) 02-11-17 7 months ago loading
trulle( 76561198120070175 ) Hack//Scripts//aimbot/spinbot etc 0 Minutes Permanent RS AT VeLoCiTy(76561198164487426) 02-11-17 7 months ago loading
KLÜM( 76561198188844694 ) Think about what you have done 2 Minutes Lifted RS AT VeLoCiTy(76561198164487426) 02-11-17 7 months ago loading
fettes walrossbaby( 76561198353066995 ) AWarn: Ban Threshold Met 30 Minutes Lifted 02-11-17 7 months ago loading
chrys.zimm( 76561198358515626 ) gtfo 30240 Minutes Lifted NG Fr0nTeS(76561198055757257) 02-11-17 7 months ago loading
VeLoCiTy_DSyR( 76561198164487426 ) Why Not :/ 120 Minutes Lifted RS AT VeLoCiTy(76561198164487426) 02-10-17 7 months ago loading
JohnToaster420 ヅ( 76561198328941051 ) reason 120 Minutes Lifted RS JohnToaster420(76561198328941051) 02-10-17 7 months ago loading
fettes walrossbaby( 76561198353066995 ) AWarn: Ban Threshold Met 30 Minutes Lifted 02-10-17 7 months ago loading
Khinda( 76561198110833551 ) RDM, denying things present in logs (but please come back) 720 Minutes Lifted Rem(76561198089791153) 02-10-17 7 months ago loading
Master Hayden( 76561198171633173 ) RDM, denying things present in logs (but please come back) 720 Minutes Lifted Rem(76561198089791153) 02-10-17 7 months ago loading
QuackityHQ | vape hyplex.co( 76561198136399756 ) minge 0 Minutes Permanent Rem(76561198089791153) 02-10-17 7 months ago loading
me.me.com( 76561198355322359 ) scripting 0 Minutes Permanent Rem(76561198089791153) 02-10-17 7 months ago loading
Senpai 【= ◈︿◈ =】( 76561198071564395 ) minge 0 Minutes Permanent Rem(76561198089791153) 02-10-17 7 months ago loading
NOCK( 76561198118566799 ) propkilling/not listening/minge - appeal on neuraxgaming.org 30240 Minutes Lifted Rem(76561198089791153) 02-10-17 7 months ago loading
BeastTheBeast( 76561198117432242 ) Mass propkill | no interest in playing | apply on neuraxgaming.org 0 Minutes Permanent Rem(76561198089791153) 02-10-17 7 months ago loading
nick( 76561198167832192 ) not listening | propabuse | appeal on neuraxgaming.org 10080 Minutes Lifted Rem(76561198089791153) 02-10-17 7 months ago loading
bo.decante( 76561198016526639 ) Mass propkill | no interest in playing | apply on neuraxgaming.org 0 Minutes Permanent Rem(76561198089791153) 02-10-17 7 months ago loading
cloud( 76561198272236949 ) Mass RDM | no interest in playing | apply on neuraxgaming.org 0 Minutes Permanent Rem(76561198089791153) 02-10-17 7 months ago loading
Matthew( 76561198114220079 ) leaving to apply punishment | job abuse | self-supply | RDM | apply on neuraxgaming.org 30240 Minutes Lifted Rem(76561198089791153) 02-10-17 7 months ago loading
Busvicke( 76561198192840487 ) Troll multiple rdming 0 Minutes Permanent Hootis Pootis(76561198052009106) 02-10-17 7 months ago loading
sirawesomewizard( 76561198256250065 ) ltap,rdming 40320 Minutes Lifted Hootis Pootis(76561198052009106) 02-10-17 7 months ago loading
birgitte( 76561198236647198 ) He Wanted to be banned 0 Minutes Lifted RS AT VeLoCiTy(76561198164487426) 02-10-17 7 months ago loading
Sock( 76561198188773849 ) a fat troll. 30240 Minutes Lifted OP Gor(76561198352802802) 02-10-17 7 months ago loading
Unknown( 76561198163571754 ) A fat troll. 30240 Minutes Lifted OP Gor(76561198352802802) 02-10-17 7 months ago loading
Shirt( 76561198239869058 ) A fat troll. 30240 Minutes Lifted OP Gor(76561198352802802) 02-10-17 7 months ago loading
Mme Lescop( 76561198282711925 ) Minge/Not here to rp come back when ready to RP 1440 Minutes Lifted HorseFighter(76561198178009975) 02-10-17 7 months ago loading
Saitama パトリック( 76561198125770701 ) Hacking//Scripts//Aimbot etc 60480 Minutes Lifted RS AT VeLoCiTy(76561198164487426) 02-10-17 7 months ago loading
ScarsiaPvP( 76561198163027698 ) Minge/Mass propkill/ Not here to rp Bye!!! 40320 Minutes Lifted HorseFighter(76561198178009975) 02-10-17 7 months ago loading
NoneOne( 76561198068699285 ) 0 Minutes Permanent HorseFighter(76561198178009975) 02-10-17 7 months ago loading
camronhartlay( 76561198247520184 ) fuck off 0 Minutes Permanent NG Fr0nTeS(76561198055757257) 02-09-17 7 months ago loading
ousamamessi( 76561198190406042 ) Pour mon special amie <3 | come back in a week- i didn't want to have to do this :c | propminge 60 Minutes Lifted Rem(76561198089791153) 02-09-17 7 months ago loading
Mr0justice( 76561198062155398 ) trying to crash server 0 Minutes Permanent Rem(76561198089791153) 02-09-17 7 months ago loading
Rens |•_•)( 76561198087603143 ) minge 0 Minutes Lifted Rem(76561198089791153) 02-09-17 7 months ago loading
Levi( 76561198273677088 ) minge 0 Minutes Permanent Rem(76561198089791153) 02-09-17 7 months ago loading
Revolution Ashton( 76561198353275326 ) using racist terms with intention to provoke | appeal on neuraxgaming.org - Rem 0 Minutes Permanent Rem(76561198089791153) 02-09-17 7 months ago loading
syphalis centeral( 76561198208237529 ) reason 0 Minutes Lifted RS AT VeLoCiTy(76561198164487426) 02-08-17 7 months ago loading
[GiB] Imperdius( 76561198111365589 ) Staff Dis//Mass RDM// Minge 5760 Minutes Lifted RS AT VeLoCiTy(76561198164487426) 02-08-17 7 months ago loading
arcanefrostf( 76561198098422147 ) Mass propkill, killing staff , quickly leaving 0 Minutes Permanent NG Admin MirrosTV(76561198136403113) 02-08-17 7 months ago loading
Hybz( 76561198114574137 ) DDOS threat 0 Minutes Permanent Hootis Pootis(76561198052009106) 02-08-17 7 months ago loading
diegogarcianames( 76561198350175814 ) Trying to crash server, not here to rp 40320 Minutes Lifted Hootis Pootis(76561198052009106) 02-08-17 7 months ago loading
Kitzaa( 76561198118761310 ) Troll, Multiple prokill 20160 Minutes Lifted Hootis Pootis(76561198052009106) 02-08-17 7 months ago loading
[New]NewYopp[FR]( 76561198202974952 ) multiple propkill 20160 Minutes Lifted Hootis Pootis(76561198052009106) 02-08-17 7 months ago loading
Mr spicy bellend sir( 76561198069418360 ) Troll. 30240 Minutes Lifted OP Gor(76561198352802802) 02-08-17 7 months ago loading
Zalamar( 76561198006045655 ) Minge/emitter spam x2/not here to rp/ not listening to staff 120 Minutes Lifted HorseFighter(76561198178009975) 02-08-17 7 months ago loading
ZanTronix | Scriptfodder.com( 76561198217330591 ) Zantronix is doomed | make sure you've calmed down before you return or appeal. 1440 Minutes Lifted Rem(76561198089791153) 02-07-17 7 months ago loading
ZanTronix | Scriptfodder.com( 76561198217330591 ) Zant 1440 Minutes Lifted Rem(76561198089791153) 02-07-17 7 months ago loading
albert( 76561198312431797 ) if you wanna leave, let us help you a bit | LTAP/MassDM 360 Minutes Lifted Rem(76561198089791153) 02-07-17 7 months ago loading
Noodles( 76561198031747350 ) alt tab propkill 20160 Minutes Lifted crezy ruschian geker aka jesse(76561198050823091) 02-07-17 7 months ago loading
nael05092004( 76561198361248060 ) LTAP propminge 20160 Minutes Lifted Rem(76561198089791153) 02-07-17 7 months ago loading
nael05092004( 76561198361248060 ) LTAP 10080 Minutes Lifted Rem(76561198089791153) 02-07-17 7 months ago loading
ryanm2711( 76561198254433954 ) let me help you a bit with the cooldown 60 Minutes Lifted Rem(76561198089791153) 02-07-17 7 months ago loading
Susan Boyle( 76561198208600033 ) let me help you a bit with the cooldown 60 Minutes Lifted Rem(76561198089791153) 02-07-17 7 months ago loading
Drink Me( 76561198149083581 ) let me help you a bit with the cooldown 60 Minutes Lifted Rem(76561198089791153) 02-07-17 7 months ago loading
KOFS( 76561198182107625 ) uberraschung! | come back when you're interested in roleplay. | minge | appeal on neuraxgaming.org 30240 Minutes Lifted Rem(76561198089791153) 02-07-17 7 months ago loading
xSilvershotx( 76561198000594683 ) LTAP 10080 Minutes Lifted Rem(76561198089791153) 02-07-17 7 months ago loading
dank memes( 76561198214787871 ) Troll. Leave m8 0 Minutes Lifted OP Gor(76561198352802802) 02-07-17 7 months ago loading
will.campbell1980( 76561198365048985 ) AWarn: Ban Threshold Met 30 Minutes Lifted 02-07-17 7 months ago loading
ItsJustDavidson( 76561198063653104 ) Mass Propkill/ Not here to RP 30240 Minutes Lifted OP Gor(76561198352802802) 02-07-17 7 months ago loading
atex. | new acc.( 76561198353066995 ) AWarn: Ban Threshold Met 30 Minutes Lifted 02-07-17 7 months ago loading
suraxia( 76561198160255557 ) prop spam prop kill 0 Minutes Permanent Hootis Pootis(76561198052009106) 02-07-17 7 months ago loading
MLGTris( 76561198160220764 ) propspam prop kill 0 Minutes Permanent Hootis Pootis(76561198052009106) 02-07-17 7 months ago loading
kinglickalot( 76561198145737920 ) Ltap RDM 720 Minutes Lifted RS Founder DarkShadow(76561198167815527) 02-07-17 7 months ago loading
Blitzeur1.0YT( 76561198336639155 ) Prop pushing car's multiple times Not here to RP cya later :l 1070 Minutes Lifted RS Founder DarkShadow(76561198167815527) 02-07-17 7 months ago loading
Tristan Lucas( 76561198257002611 ) Attempt to crash the server (u failed so bad) 10000 Minutes Lifted RS Founder DarkShadow(76561198167815527) 02-07-17 7 months ago loading
yannis78410( 76561198351338372 ) Ltap RDM 720 Minutes Lifted RS Founder DarkShadow(76561198167815527) 02-07-17 7 months ago loading
ThatMeme( 76561198330848263 ) racism 480 Minutes Lifted Hootis Pootis(76561198052009106) 02-07-17 7 months ago loading
FireWolf( 76561198061770620 ) Ur not ment for this server Crashing the server 0 Minutes Permanent RS Owner DarkShadow(76561198167815527) 02-07-17 7 months ago loading
FireWolf( 76561198061770620 ) Ur not ment for this server : 0 Minutes Permanent RS Owner DarkShadow(76561198167815527) 02-07-17 7 months ago loading
Lupa | Chawizard( 76561198254444645 ) Scripting -Racism much Good luck u can appeal on neuraxgaming.org 0 Minutes Permanent RS Owner DarkShadow(76561198167815527) 02-07-17 7 months ago loading
Lupa | Chawizard( 76561198254444645 ) Racism much Good luck u can appeal on neuraxgaming.org 0 Minutes Permanent RS Owner DarkShadow(76561198167815527) 02-07-17 7 months ago loading
NG Mod | Mitch0305( 76561198170296593 ) Emitter Spam False acusing me of abuse 60 Minutes Lifted RS Owner DarkShadow(76561198167815527) 02-07-17 7 months ago loading
Stefan Bradford( 76561198299780560 ) Please think about what you've done and appeal on neuraxgaming.org. | Mass RDM in sit 10080 Minutes Lifted Rem(76561198089791153) 02-07-17 7 months ago loading
Twitchy( 76561198132262074 ) Trying to crash server 0 Minutes Permanent RS Owner DarkShadow(76561198167815527) 02-07-17 7 months ago loading
Urban Lax( 76561198140284862 ) Trying to crash server 0 Minutes Permanent Rem(76561198089791153) 02-07-17 7 months ago loading
IExPosed( 76561198269603754 ) Trying to crash server 0 Minutes Permanent RS VeLoCiTy(76561198164487426) 02-07-17 7 months ago loading
admin( 76561198190281887 ) mass RDM LTAP 20160 Minutes Lifted Rem(76561198089791153) 02-07-17 7 months ago loading
Just Say Devv( 76561198215319799 ) i'll unbann if u ask me Probably crashiing server check logs 0 Minutes Lifted RS Owner DarkShadow(76561198167815527) 02-07-17 7 months ago loading
Dirty Dave( 76561198057275548 ) Minge/not here to rp/mass rdm/rdm in sit 240 Minutes Lifted HorseFighter(76561198178009975) 02-07-17 7 months ago loading
lucasssss23( 76561198285960612 ) rdm in sit 20160 Minutes Lifted OP Salty(76561198353916374) 02-06-17 7 months ago loading
RS Toilet Man( 76561198105626821 ) mas rdm 30240 Minutes Lifted OP Salty(76561198353916374) 02-06-17 7 months ago loading
5shaked5( 76561198092355705 ) rdm in sit 4320 Minutes Lifted OP Salty(76561198353916374) 02-06-17 7 months ago loading
[SBG] FrazerMoon( 76561198121325581 ) rdm in sit 4320 Minutes Lifted OP Salty(76561198353916374) 02-06-17 7 months ago loading
BelgianShadow hyplex.co( 76561198167815527 ) U dumb cunt 1 Minutes Lifted RS OwnerBelgianShadow(76561198167815527) 02-06-17 7 months ago loading
LordesSabliers( 76561198150393475 ) Calm down with ur shitty pranks :3 60 Minutes Lifted RS OwnerBelgianShadow(76561198167815527) 02-06-17 7 months ago loading
SystemTDX | kickback.com( 76561198140683375 ) Ltap Mass RDM dont come back thanks:D 40320 Minutes Lifted RS OwnerBelgianShadow(76561198167815527) 02-06-17 7 months ago loading
The Polder King( 76561198108895334 ) Mass Prop kill lTAP 7200 Minutes Lifted RS OwnerBelgianShadow(76561198167815527) 02-06-17 7 months ago loading
Fyre( 76561198129106602 ) Crashing serv 0 Minutes Permanent RS OwnerBelgianShadow(76561198167815527) 02-06-17 7 months ago loading
Irregular( 76561198252796136 ) reason 0 Minutes Permanent jesse xd(76561198050823091) 02-06-17 7 months ago loading
Maxime( 76561198273161092 ) mas prop kill 40320 Minutes Lifted OP Salty(76561198353916374) 02-06-17 7 months ago loading
SwegWays( 76561198336557185 ) U got told already 4870 Minutes Lifted RS OwnerBeglianShadow(76561198167815527) 02-06-17 7 months ago loading
Daddy Sal( 76561198086274010 ) rdm in span and killing people in sit 10080 Minutes Lifted OP Salty(76561198353916374) 02-06-17 7 months ago loading
TheDerpyStudios( 76561198093182367 ) prop kill 30240 Minutes Lifted OP Salty(76561198353916374) 02-06-17 7 months ago loading
Sprit Nona( 76561198081646030 ) Rdm in a sit. LTAP 4320 Minutes Lifted OP Gor(76561198352802802) 02-06-17 7 months ago loading
Eric Harris( 76561198079362526 ) I said stop 1000 Minutes Lifted RS OwnerBeglianShadow(76561198167815527) 02-06-17 7 months ago loading
Max( 76561198068469934 ) prob kill 30240 Minutes Lifted OP Salty(76561198353916374) 02-06-17 7 months ago loading
✪ TSRVTC - CC | Dan( 76561198111641046 ) mass rdm rda 10080 Minutes Lifted OP Salty(76561198353916374) 02-06-17 7 months ago loading
TriggeredGor( 76561198352802802 ) fuck off im done :3 0 Minutes Lifted NG RS BelgianShadow(76561198167815527) 02-06-17 7 months ago loading
Junior01( 76561197999519434 ) Propkill 30240 Minutes Lifted OP Gor(76561198352802802) 02-06-17 7 months ago loading
Schmexxy( 76561198044198386 ) Masss rdmm 17200 Minutes Lifted NG RS BelgianShadow(76561198167815527) 02-06-17 7 months ago loading
Tristan Madsen( 76561198044644848 ) Mass Rdm 30240 Minutes Lifted OP Gor(76561198352802802) 02-06-17 7 months ago loading
Steve Irwin( 76561198021622261 ) Mass rdm 30240 Minutes Lifted OP Gor(76561198352802802) 02-06-17 7 months ago loading
Banana McSwaggins( 76561198076882223 ) Trying to crash server (suspect) 0 Minutes Lifted NG RS BelgianShadow(76561198167815527) 02-06-17 7 months ago loading
Moores( 76561198094208568 ) Rdm Rdm attempted 2400 Minutes Lifted NG RS BelgianShadow(76561198167815527) 02-06-17 7 months ago loading
Moores( 76561198094208568 ) i'll fuck u ;-; 4800 Minutes Lifted NG RS BelgianShadow(76561198167815527) 02-06-17 7 months ago loading
NG Mod | Mitch0305( 76561198170296593 ) Ltap Raid -over not false 120 Minutes Lifted NG RS BelgianShadow(76561198167815527) 02-06-17 7 months ago loading
Ted( 76561198361445021 ) now THIS is funny mate | general minge/selfsupply/RDM, plesae cool down 60 Minutes Lifted Rem(76561198089791153) 02-06-17 7 months ago loading
Khalil Ktm( 76561198361640782 ) I said say sorry (mass troll no) 0 Minutes Permanent NG RS BelgianShadow(76561198167815527) 02-05-17 7 months ago loading
wwwwwwww( 76561198019632468 ) Crashing server bye bye 0 Minutes Permanent NG RS BelgianShadow(76561198167815527) 02-05-17 7 months ago loading
72865( 76561198125826454 ) NO PLEAS NO PROP KILL 0 Minutes Permanent NG RS BelgianShadow(76561198167815527) 02-05-17 7 months ago loading
wwwwwwww( 76561198019632468 ) Shut up belgium is awesome :3 4800 Minutes Lifted NG RS BelgianShadow(76561198167815527) 02-05-17 7 months ago loading
ash like cash( 76561197968646627 ) rope spam 0 Minutes Permanent NG RS BelgianShadow(76561198167815527) 02-05-17 7 months ago loading
BI GBOI( 76561198106183877 ) Rope spam (nice acting) 0 Minutes Permanent NG RS BelgianShadow(76561198167815527) 02-05-17 7 months ago loading
Ramendar17( 76561198139374594 ) tbh Dont come back pleas with ur trolling Prop killing all that 4800 Minutes Lifted NG RS BelgianShadow(76561198167815527) 02-05-17 7 months ago loading
IDieMoreThanKenny( 76561198147792181 ) STOP FS 0 Minutes Permanent NG RS BelgianShadow(76561198167815527) 02-05-17 7 months ago loading
Comgal( 76561198119513285 ) crashing serv 0 Minutes Permanent NG RS BelgianShadow(76561198167815527) 02-05-17 7 months ago loading
ousamamessi( 76561198190406042 ) leave to avoid sit and warn and u rdmed staff for fun 1440 Minutes Lifted SD Mitch(76561198170296593) 02-05-17 7 months ago loading
Mr Snuffles( 76561198299995433 ) mass RDM - apply at neuraxgaming.org 10080 Minutes Lifted Rem(76561198089791153) 02-05-17 7 months ago loading
Nathiiix( 76561198153544941 ) Lmao Donald Trump Dont mass prop kill and all that join ya friend 30240 Minutes Lifted NG BelgianShadow(76561198167815527) 02-05-17 7 months ago loading
Lucas( 76561198147604615 ) MASS PROP KILL TROLL 0 Minutes Permanent NG BelgianShadow(76561198167815527) 02-05-17 7 months ago loading
✮Vesku✮( 76561198093769165 ) U cheaky snake Ltap Prop Minge Troll cya 5760 Minutes Lifted NG BelgianShadow(76561198167815527) 02-05-17 7 months ago loading
{VRP}AB.tyl3r( 76561198078709695 ) fuck off :) 0 Minutes Lifted NG Fr0nTeS(76561198055757257) 02-05-17 7 months ago loading
BlueFlame( 76561198127402810 ) rope spam 20160 Minutes Lifted SD Salty(76561198353916374) 02-05-17 7 months ago loading
z3us( 76561198303809481 ) reason 1440 Minutes Lifted VeLoCiTy(76561198164487426) 02-05-17 7 months ago loading
BLACK OSAMA( 76561198335911122 ) reason 10080 Minutes Lifted SD Mitch(76561198170296593) 02-05-17 7 months ago loading
[VRP] Evy_D( 76561197970835514 ) Mass propkill in spwan 240 Minutes Lifted VeLoCiTy(76561198164487426) 02-05-17 7 months ago loading
[VRP] ♋ Clorox ♋( 76561197979943055 ) Mass RDM and Propkill 300 Minutes Lifted VeLoCiTy(76561198164487426) 02-05-17 7 months ago loading
HartAmLimit( 76561198047457112 ) Mas Propkill 180 Minutes Lifted VeLoCiTy(76561198164487426) 02-05-17 7 months ago loading
[VRP] Turbo Grafx 16( 76561198150863080 ) Propkill and mass rdm ;) 120 Minutes Lifted VeLoCiTy(76561198164487426) 02-05-17 7 months ago loading
DeEZeR?( 76561198149875999 ) Dude why rdm 30 Minutes Lifted VeLoCiTy(76561198164487426) 02-05-17 7 months ago loading
Critted Hyplex.co( 76561198311031735 ) 4 0 Minutes Lifted VeLoCiTy(76561198164487426) 02-05-17 7 months ago loading
Emil( 76561198066736688 ) Mass Propkill 120 Minutes Lifted VeLoCiTy(76561198164487426) 02-05-17 7 months ago loading
www.thekidfrombrooklyn.com( 76561198084324431 ) Constant Mass RDM 120 Minutes Lifted VeLoCiTy(76561198164487426) 02-05-17 7 months ago loading
Surfkid10( 76561198218874904 ) Constant Mass RDM 120 Minutes Lifted VeLoCiTy(76561198164487426) 02-05-17 7 months ago loading
ℜεĐ Sangheli( 76561198271811347 ) Nuu 1 Minutes Lifted NG BelgianShadow(76561198167815527) 02-05-17 7 months ago loading
HorseFighter( 76561198178009975 ) hou je bek fgt 1 Minutes Lifted NG BelgianShadow(76561198167815527) 02-05-17 7 months ago loading
Dinky( 76561198157735200 ) Random Bind 1440 Minutes Lifted Lester(76561198165822815) 02-04-17 7 months ago loading
[fnfm] Crazy Homo Joe( 76561198133346408 ) Mass RDM Minge Racism 0 Minutes Permanent Lester(76561198165822815) 02-04-17 7 months ago loading
[fnfm] Gaping Distribution Hoop( 76561198120025480 ) RDM Minge 0 Minutes Permanent Lester(76561198165822815) 02-04-17 7 months ago loading
andalucia 8 provincias( 76561198359948854 ) Mass Propkill 10080 Minutes Lifted Lester(76561198165822815) 02-04-17 7 months ago loading
BelgianShadow hyplex.co( 76561198167815527 ) fuck of dumbass 1 Minutes Lifted NG ZanTronix(76561198217330591) 02-04-17 7 months ago loading
DEADMONSTOR( 76561198138092784 ) Its a prank bro 0 Minutes Permanent NG ZanTronix(76561198217330591) 02-04-17 7 months ago loading
Stubbo( 76561197972856413 ) Its a Prank bro 0 Minutes Permanent NG ZanTronix(76561198217330591) 02-04-17 7 months ago loading
riderbeatch( 76561198283131281 ) prop minge prop spam 0 Minutes Permanent NG BelgianShadow(76561198167815527) 02-04-17 7 months ago loading
xddd( 76561197960279401 ) NO 0 Minutes Permanent NG BelgianShadow(76561198167815527) 02-04-17 7 months ago loading
gabelolguy( 76561198080653744 ) Mass RDM Minge man dont do this sheet to me 4800 Minutes Lifted NG BelgianShadow(76561198167815527) 02-04-17 7 months ago loading
Bobby Unicorn {CivilGamers.com}( 76561198206615625 ) mass rdm 10080 Minutes Lifted SD Salty(76561198353916374) 02-04-17 7 months ago loading
Azarav( 76561198213074959 ) Fuck off stealing files u sneaky cunt 0 Minutes Lifted NG BelgianShadow(76561198167815527) 02-04-17 7 months ago loading
faZe NoseSniffer( 76561198172209047 ) sigh :D 4000 Minutes Lifted NG BelgianShadow(76561198167815527) 02-04-17 7 months ago loading
SwAp_Hafy_( 76561198352200792 ) No rdm No troll English Only Mass Minge 6000 Minutes Lifted NG BelgianShadow(76561198167815527) 02-04-17 7 months ago loading
$peedy Gonzale$ society.gg( 76561198089866075 ) woops misclick 70560 Minutes Lifted Rem(76561198089791153) 02-04-17 7 months ago loading
Warhead( 76561198053328559 ) No u made me triggered u naughty 4320 Minutes Lifted NG BelgianShadow(76561198167815527) 02-04-17 7 months ago loading
SkyyGame( 76561198154148432 ) Dont pleas 0 Minutes Permanent NG BelgianShadow(76561198167815527) 02-04-17 7 months ago loading
Tyler( 76561198212629248 ) kys fag 0 Minutes Permanent Rem(76561198089791153) 02-04-17 7 months ago loading
[turtle]sharkie( 76561198217626108 ) Hide ya scripts faggot 0 Minutes Permanent NG BelgianShadow(76561198167815527) 02-04-17 7 months ago loading
MasterSchlitz( 76561198192133326 ) Rope spam 0 Minutes Permanent NG BelgianShadow(76561198167815527) 02-04-17 7 months ago loading
YesMommy( 76561198247191468 ) mass rdmx3 2879 Minutes Lifted ZanTronix(76561198217330591) 02-04-17 7 months ago loading
YesMommy( 76561198247191468 ) mass rdmx3 30240 Minutes Lifted SD Salty(76561198353916374) 02-04-17 7 months ago loading
[O&O]✘➥SaBrie➥✘( 76561198169305496 ) Have fun ( mASS PKILL ) 30240 Minutes Lifted SD Gor(76561198352802802) 02-04-17 7 months ago loading
♤AS♤( 76561198210696525 ) Troll Prop minge LTAP 10080 Minutes Lifted NG BelgianShadow(76561198167815527) 02-04-17 7 months ago loading
eggz de( 76561198081372740 ) Mass RDM go play with ur friend 0 Minutes Permanent NG BelgianShadow(76561198167815527) 02-04-17 7 months ago loading
legend27( 76561198063908952 ) Mass RDM go play with ur friend 20160 Minutes Lifted NG BelgianShadow(76561198167815527) 02-04-17 7 months ago loading
CoHa ☆ Krisk ZreakRP( 76561198312904382 ) trying to crash the server 0 Minutes Lifted Rem(76561198089791153) 02-04-17 7 months ago loading
CoHa ☆ Krisk ZreakRP( 76561198312904382 ) 0 Minutes Lifted Rem(76561198089791153) 02-04-17 7 months ago loading
Rem( 76561198089791153 ) attempting to crash server 0 Minutes Lifted Rem(76561198089791153) 02-04-17 7 months ago loading
KiingZz_4( 76561198281269479 ) Change your name. 60 Minutes Lifted Rem(76561198089791153) 02-04-17 7 months ago loading
The Darkeur( 76561198169848921 ) Ltap Mass RDM No RP in spawn cya 7200 Minutes Lifted NG BelgianShadow(76561198167815527) 02-04-17 7 months ago loading
Whale Tits( 76561198027635757 ) I told you to change you're name to a none offencive name 60 Minutes Lifted NG BelgianShadow(76561198167815527) 02-04-17 7 months ago loading
björn( 76561198288267438 ) Ltap Anoying players 120 Minutes Lifted NG BelgianShadow(76561198167815527) 02-04-17 7 months ago loading
Tioax( 76561198112032889 ) Imporsanating prop killing 2000 Minutes Lifted NG BelgianShadow(76561198167815527) 02-04-17 7 months ago loading
Six( 76561198118512275 ) No homo Prop Minge Lying to staff false acusing staff cya later 10080 Minutes Lifted NG BelgianShadow(76561198167815527) 02-04-17 7 months ago loading
codybrads05( 76561198353984405 ) No Disrespect Mass RDM PROP MINGE 4800 Minutes Lifted NG BelgianShadow(76561198167815527) 02-04-17 7 months ago loading
innterwepz-( 76561198319871865 ) no 0 Minutes Permanent NG BelgianShadow(76561198167815527) 02-04-17 7 months ago loading
Ryno_Warrior( 76561198131026188 ) Trolling ( mass rdm ) 30240 Minutes Lifted SD Gor(76561198352802802) 02-04-17 7 months ago loading
nesil.ozserik( 76561198321241077 ) Troll ( Mass RDM ) Why do sqeakers troll? 30240 Minutes Lifted SD Gor(76561198352802802) 02-04-17 7 months ago loading
BelgianShadow hyplex.co( 76561198167815527 ) ALT E ABUSE Nah 4320 Minutes Lifted NG BelgianShadow(76561198167815527) 02-03-17 7 months ago loading
Max( 76561198121707503 ) minge / RDM rope-abuse 10080 Minutes Lifted Rem(76561198089791153) 02-03-17 7 months ago loading
Splorgus( 76561198016345073 ) minge 10080 Minutes Lifted Rem(76561198089791153) 02-03-17 7 months ago loading
Ahus( 76561198202902803 ) Mass RDM, uncooperative 10080 Minutes Lifted Rem(76561198089791153) 02-03-17 7 months ago loading
Jambo X78( 76561198324072723 ) By request 70560 Minutes Lifted Rem(76561198089791153) 02-03-17 7 months ago loading
RennieDude ExFall ✯( 76561198073802783 ) reason 0 Minutes Lifted Rem(76561198089791153) 02-03-17 7 months ago loading
The Piano Entertainer( 76561198215093332 ) i asked so nicely :( | abusing nocollide 10 Minutes Lifted Rem(76561198089791153) 02-03-17 7 months ago loading
moon.mimoun( 76561198203186881 ) Minge/rdm/propkill/ltap/not here to rp 40320 Minutes Lifted Barry De Straaljager(76561198178009975) 02-03-17 7 months ago loading
moon.mimoun( 76561198203186881 ) Minge/rdm/propkill/ltap/not here to rp 40320 Minutes Lifted Barry De Straaljager(76561198178009975) 02-03-17 7 months ago loading
moon.mimoun( 76561198203186881 ) Minge/rdm/propkill/ltap/not here to rp 40320 Minutes Lifted Barry De Straaljager(76561198178009975) 02-03-17 7 months ago loading
icekilleur7( 76561198241738984 ) Minge/leaving sit/ not here to rp 5760 Minutes Lifted Barry De Straaljager(76561198178009975) 02-03-17 7 months ago loading
moon.mimoun( 76561198203186881 ) minge 0 Minutes Permanent Rem(76561198089791153) 02-03-17 7 months ago loading
Evity( 76561198224995324 ) minge 0 Minutes Permanent Rem(76561198089791153) 02-01-17 7 months ago loading
Assault00( 76561198318369393 ) Ltap RDM 2880 Minutes Lifted BelgianShadow(76561198167815527) 02-01-17 7 months ago loading
Assault00( 76561198318369393 ) Ltap RDM in sit 2880 Minutes Lifted BelgianShadow(76561198167815527) 02-01-17 7 months ago loading
ᴾᵒᵒˡ| ᴸᵉᵃⁿˢᑫᵘᵃᵈ( 76561198063823848 ) i aint stupid fam 2880 Minutes Lifted BelgianShadow(76561198167815527) 02-01-17 7 months ago loading
Six( 76561198118512275 ) Breaking the map 0 Minutes Lifted SD Gor(76561198352802802) 02-01-17 7 months ago loading
[turtle]slappyHD( 76561198217626108 ) minge 0 Minutes Permanent Rem(76561198089791153) 02-01-17 7 months ago loading
Ganged( 76561198039441946 ) take a chill pill | propabuse/noncooperative 60 Minutes Lifted Rem(76561198089791153) 02-01-17 7 months ago loading
FROST( 76561198215109001 ) minge 0 Minutes Permanent Rem(76561198089791153) 02-01-17 7 months ago loading
≈SqyNox≈( 76561198249769248 ) minge 0 Minutes Permanent Rem(76561198089791153) 02-01-17 7 months ago loading
㋡═☞๖ۣۜS_TalkÆr( 76561198167050206 ) minge 0 Minutes Permanent Rem(76561198089791153) 02-01-17 7 months ago loading
ez game( 76561198126284165 ) reason 0 Minutes Permanent SD John(76561198328941051) 01-31-17 7 months ago loading
calver( 76561198033016240 ) reason 0 Minutes Permanent SD John(76561198328941051) 01-31-17 7 months ago loading
Shirt( 76561198239869058 ) AWarn: Ban Threshold Met 30 Minutes Lifted 01-31-17 7 months ago loading
alvinse( 76561198339214494 ) Stop prop killing You can Appeal ur bann on neuraxgaming.org :D 2580 Minutes Lifted BelgianShadow(76561198167815527) 01-31-17 7 months ago loading
time( 76561198341303032 ) None of that kid 2480 Minutes Lifted BelgianShadow(76561198167815527) 01-31-17 7 months ago loading
[Divinty]Devil( 76561198148780594 ) Mass Rulebreak Not here to rp -Gor cya in a long time 0 Minutes Permanent SD Gor(76561198352802802) 01-31-17 7 months ago loading
The 5 stones.( 76561198332809518 ) Minge Mass Prop Kill 5760 Minutes Lifted BelgianShadow(76561198167815527) 01-31-17 7 months ago loading
2spooky4me( 76561198116145318 ) No reason To RP 30 Minutes Lifted SD John(76561198328941051) 01-31-17 7 months ago loading
Mr. Black( 76561198073854439 ) You are a troll trying to lie to staff propushing a car and lying about that im abusing my power 10080 Minutes Lifted BelgianShadow(76561198167815527) 01-31-17 7 months ago loading
Mr. Black( 76561198073854439 ) You are a troll trying to lie to staff propushing a car and lying about that im abusing my power 0 Minutes Permanent ToBzKz(76561198125737678) 01-31-17 7 months ago loading
DARK - GMODCHEATS.COM( 76561197975007384 ) fuck off 0 Minutes Permanent NG Fr0nTeS(76561198055757257) 01-31-17 7 months ago loading
Jynxx - gmodcheats.com( 76561198315446642 ) go dox my mum kid 0 Minutes Permanent BelgianShadow(76561198167815527) 01-31-17 7 months ago loading
Swukill( 76561198192413398 ) reason 720 Minutes Lifted SD John(76561198328941051) 01-31-17 7 months ago loading
NG Mod | Mitch0305( 76561198170296593 ) 0 Minutes Lifted TXC NG Admin Connor(76561198153895622) 01-31-17 7 months ago loading
✪Ted( 76561198361445021 ) Stealing server files I had to do it 0 Minutes Lifted ToBzKz(76561198125737678) 01-31-17 7 months ago loading
✪Ted( 76561198361445021 ) reason 0 Minutes Lifted SD John(76561198328941051) 01-31-17 7 months ago loading
✪Ted( 76561198361445021 ) reason 0 Minutes Lifted SD John(76561198328941051) 01-31-17 7 months ago loading
✪Ted( 76561198361445021 ) reason 0 Minutes Lifted SD John(76561198328941051) 01-31-17 7 months ago loading
NG | ✪Ted( 76561198361445021 ) 0 Minutes Lifted (Console) 01-31-17 7 months ago loading
HorseFighter( 76561198178009975 ) reason 0 Minutes Lifted ✪Ted(76561198361445021) 01-31-17 7 months ago loading
Azarav( 76561198213074959 ) 0 Minutes Lifted TXC NG Admin Connor(76561198153895622) 01-31-17 7 months ago loading
Victor( 76561198124378946 ) AWarn: Ban Threshold Met 30 Minutes Lifted 01-31-17 7 months ago loading
Victor( 76561198124378946 ) AWarn: Ban Threshold Met 30 Minutes Lifted 01-31-17 7 months ago loading
Victor( 76561198124378946 ) AWarn: Ban Threshold Met 30 Minutes Lifted 01-31-17 7 months ago loading
Victor( 76561198124378946 ) AWarn: Ban Threshold Met 30 Minutes Lifted 01-31-17 7 months ago loading
Victor( 76561198124378946 ) AWarn: Ban Threshold Met 30 Minutes Lifted 01-31-17 7 months ago loading
Norrtand( 76561198124378946 ) AWarn: Ban Threshold Met 30 Minutes Lifted 01-31-17 7 months ago loading
Norrtand( 76561198124378946 ) AWarn: Ban Threshold Met 30 Minutes Lifted 01-31-17 7 months ago loading
Norrtand( 76561198124378946 ) AWarn: Ban Threshold Met 30 Minutes Lifted 01-31-17 7 months ago loading
Norrtand( 76561198124378946 ) AWarn: Ban Threshold Met 30 Minutes Lifted 01-31-17 7 months ago loading
Norrtand( 76561198124378946 ) AWarn: Ban Threshold Met 30 Minutes Lifted 01-31-17 7 months ago loading
Norrtand( 76561198124378946 ) AWarn: Ban Threshold Met 30 Minutes Lifted 01-31-17 7 months ago loading
Norrtand( 76561198124378946 ) 0 Minutes Lifted ✪Ted(76561198361445021) 01-31-17 7 months ago loading
Norrtand( 76561198124378946 ) AWarn: Ban Threshold Met 30 Minutes Lifted 01-31-17 7 months ago loading
NG Mod | Mitch0305( 76561198170296593 ) dont ever do that 10 Minutes Lifted ✪Ted(76561198361445021) 01-31-17 7 months ago loading
Recoil( 76561198271041387 ) rdm 5 Minutes Lifted ✪Ted(76561198361445021) 01-30-17 7 months ago loading
[ASLG] Lex( 76561198123402708 ) 10 0 Minutes Lifted ✪Ted(76561198361445021) 01-30-17 7 months ago loading
[ASLG] Lex( 76561198123402708 ) prop 5 Minutes Lifted ✪Ted(76561198361445021) 01-30-17 7 months ago loading
Prosper Hotshot( 76561198277048589 ) 0 Minutes Permanent NG Fr0nTeS(76561198055757257) 01-30-17 7 months ago loading
Dyn( 76561198201745255 ) 0 Minutes Permanent NG Fr0nTeS(76561198055757257) 01-30-17 7 months ago loading
Tmashi( 76561198135963404 ) AWarn: Ban Threshold Met 30 Minutes Lifted 01-30-17 7 months ago loading
[PearRP Owner] mitch0305( 76561198170296593 ) Mass rulebreaking, appeal on forum 2880 Minutes Lifted NG Fr0nTeS(76561198055757257) 01-30-17 7 months ago loading
✖C18✖( 76561198190656271 ) 0 Minutes Permanent ✪Ted(76561198361445021) 01-30-17 7 months ago loading
Tmashi( 76561198135963404 ) AWarn: Ban Threshold Met 30 Minutes Lifted 01-30-17 7 months ago loading
⠀ ⠀ ⠀ ⠀ ⠀ ⠀ ⠀( 76561198344675214 ) reason 1440 Minutes Lifted SD John(76561198328941051) 01-30-17 7 months ago loading
SolaR( 76561198145723338 ) reason 1440 Minutes Lifted SD John(76561198328941051) 01-30-17 7 months ago loading
России Торговец наркотиками( 76561198105349641 ) Ltap RDM in sit NLR 1440 Minutes Lifted BelgianShadow(76561198167815527) 01-30-17 7 months ago loading
AEplays( 76561198143590812 ) disrespect 60 Minutes Lifted NG Fr0nTeS(76561198055757257) 01-30-17 7 months ago Forum
Specky hyplex.co( 76561198246238966 ) reason 120 Minutes Lifted ✪Ted(76561198361445021) 01-29-17 7 months ago loading
NG | ✪Ted( 76561198361445021 ) Rape. 100 Minutes Lifted ZanTronix(76561198217330591) 01-29-17 7 months ago loading
NG | ✪Ted( 76561198361445021 ) fuck you. Dumbass 0 Minutes Lifted ZanTronix(76561198217330591) 01-29-17 7 months ago loading
pr0xy( 76561198072624245 ) PropKill 5 Minutes Lifted SD John(76561198328941051) 01-29-17 7 months ago loading
[PearRP Owner] mitch0305( 76561198170296593 ) reason 120 Minutes Lifted SD John(76561198328941051) 01-29-17 7 months ago loading
rick harison | CSGOatse.com( 76561198140597761 ) reason 0 Minutes Lifted ✪Ted(76561198361445021) 01-29-17 7 months ago loading
Rocco Gringo( 76561198328783579 ) Apply at www.gofuckyourselfeatshit.com 0 Minutes Permanent NG Fr0nTeS(76561198055757257) 01-29-17 7 months ago loading
brensouille( 76561198285292116 ) killing in a sit 300 Minutes Lifted ToBzKz(76561198125737678) 01-29-17 7 months ago loading
Rivano( 76561198323189655 ) Killing an admin while in a sit 1573 Minutes Lifted ToBzKz(76561198125737678) 01-29-17 7 months ago loading
HorseFighter( 76561198178009975 ) Appeal this ban on forum 0 Minutes Lifted NG Fr0nTeS(76561198055757257) 01-29-17 7 months ago loading
Zapper( 76561198013207789 ) stop rejoining dude dont minge here 60 Minutes Lifted Barry De Straaljager(76561198178009975) 01-29-17 7 months ago loading
Casper( 76561198036173991 ) Mass PropKill 30 Minutes Lifted SD John(76561198328941051) 01-29-17 7 months ago loading
Cindering (Toaster)( 76561198065555509 ) PropKill 1440 Minutes Lifted SD John(76561198328941051) 01-29-17 7 months ago 185.38.151.197
Fly( 76561198094229128 ) Homo =) 0 Minutes Permanent NG Fr0nTeS(76561198055757257) 01-29-17 7 months ago 185.38.151.197
Bolton the frᙓᙓ-mムn( 76561198096196978 ) Minge 40320 Minutes Lifted NG Fr0nTeS(76561198055757257) 01-29-17 7 months ago 185.38.151.197
Tmashi( 76561198135963404 ) AWarn: Ban Threshold Met 30 Minutes Lifted 01-28-17 7 months ago 185.38.151.197
Crustie( 76561198127233663 ) Disrespecting staff and leaving in a sit 20 Minutes Lifted ToBzKz(76561198125737678) 01-28-17 7 months ago 185.38.151.197
de_legend27( 76561198030883212 ) Cya 161280 Minutes Lifted NG Fr0nTeS(76561198055757257) 01-28-17 7 months ago 185.38.151.197
Sommer1G( 76561198126065811 ) 0 Minutes Permanent ✪Ted(76561198361445021) 01-28-17 7 months ago 185.38.151.197
Jabby( 76561198147103746 ) PropPush/PropKill 1440 Minutes Lifted SD John(76561198328941051) 01-28-17 7 months ago 185.38.151.197
Pokmen( 76561198244800564 ) mass propkill 300 Minutes Lifted ToBzKz(76561198125737678) 01-28-17 7 months ago 185.38.151.197
Gambit( 76561198144654585 ) Bye 20160 Minutes Lifted SD John(76561198328941051) 01-28-17 7 months ago 185.38.151.197
africa( 76561198073784795 ) Fuck Off 20160 Minutes Lifted SD John(76561198328941051) 01-28-17 7 months ago 185.38.151.197
Ruzaki( 76561198087165089 ) reason 1440 Minutes Lifted SD John(76561198328941051) 01-28-17 7 months ago 185.38.151.197
BadMemes.com Hyplex.com( 76561198288381321 ) 0 Minutes Permanent NG Fr0nTeS(76561198055757257) 01-28-17 7 months ago 185.38.151.197
jehan-42( 76561198244078516 ) RDM 20160 Minutes Lifted SD John(76561198328941051) 01-28-17 7 months ago 185.38.151.197
jehan-42( 76561198244078516 ) RDM 0 Minutes Lifted SD John(76561198328941051) 01-28-17 7 months ago 185.38.151.197
lucien.swag( 76561198271593828 ) reason 1440 Minutes Lifted SD John(76561198328941051) 01-28-17 7 months ago 185.38.151.197
big lez( 76561198008317010 ) cya in 8 weeks 80640 Minutes Lifted NG Fr0nTeS(76561198055757257) 01-28-17 7 months ago 185.38.151.197
N-G | YTjaygo148( 76561198272366340 ) 0 Minutes Permanent ✪Ted(76561198361445021) 01-28-17 7 months ago 185.38.151.197
Rolex2223( 76561198087324873 ) 0 Minutes Permanent ✪Ted(76561198361445021) 01-28-17 7 months ago 185.38.151.197
RiPx inestic ︻芫═──:( 76561198125751772 ) 0 Minutes Permanent ✪Ted(76561198361445021) 01-28-17 7 months ago 185.38.151.197
SeanEpic( 76561198133704477 ) 0 Minutes Permanent ✪Ted(76561198361445021) 01-28-17 7 months ago 185.38.151.197
BelgianShadow( 76561198167815527 ) cya 0 Minutes Lifted ✪Ted(76561198361445021) 01-28-17 7 months ago 185.38.151.197
BelgianShadow( 76561198167815527 ) cya 0 Minutes Lifted BelgianShadow(76561198167815527) 01-28-17 7 months ago 185.38.151.197
Cookiefunny4fun( 76561198090946663 ) Mass PropKill 5 Minutes Lifted SD John(76561198328941051) 01-28-17 7 months ago 185.38.151.197
SamiQC( 76561198332064763 ) 0 Minutes Permanent ✪Ted(76561198361445021) 01-28-17 7 months ago 185.38.151.197
Billy Kuruzaki( 76561198274241551 ) 0 Minutes Permanent ✪Ted(76561198361445021) 01-28-17 7 months ago 185.38.151.197
SkyyGame( 76561198154148432 ) prop killing 5 Minutes Lifted ✪Ted(76561198361445021) 01-28-17 7 months ago 185.38.151.197
JohnToaster420 ヅ( 76561198328941051 ) dont do that again 15 Minutes Lifted ✪Ted(76561198361445021) 01-28-17 7 months ago 185.38.151.197
SkyyGame( 76561198154148432 ) PropKill 5 Minutes Lifted JohnToaster420(76561198328941051) 01-28-17 7 months ago 185.38.151.197
✪Ted( 76561198361445021 ) RDM 10 Minutes Lifted JohnToaster420(76561198328941051) 01-28-17 7 months ago 185.38.151.197
BelgianShadow( 76561198167815527 ) dont ever ban me 99 Minutes Lifted ✪Ted(76561198361445021) 01-28-17 7 months ago 185.38.151.197
✪Ted( 76561198361445021 ) calm down 1440 Minutes Lifted BelgianShadow(76561198167815527) 01-28-17 7 months ago 185.38.151.197
TheDuckVoice( 76561198069011074 ) LTAP 120 Minutes Lifted BelgianShadow(76561198167815527) 01-28-17 7 months ago 185.38.151.197
alex's king sick world( 76561198175807983 ) 120 Minutes Lifted NG Admin Connor(76561198153895622) 01-27-17 7 months ago 185.38.151.197
KingHorizon( 76561198182982718 ) reason 2 Minutes Lifted ✪Ted(76561198361445021) 01-27-17 7 months ago 185.38.151.197
SwegWays( 76561198336557185 ) 0 Minutes Lifted ✪Ted(76561198361445021) 01-27-17 7 months ago 185.38.151.197
✪Ted( 76561198361445021 ) RDM 0 Minutes Lifted JohnToaster420 ヅ(76561198328941051) 01-27-17 7 months ago 185.38.151.197
✪Ted( 76561198361445021 ) RDM 5 Minutes Lifted JohnToaster420 ヅ(76561198328941051) 01-27-17 7 months ago 185.38.151.197
the big burger 78( 76561198261274919 ) reason 5 Minutes Lifted JohnToaster420 ヅ(76561198328941051) 01-27-17 7 months ago 185.38.151.197
AryanXXX 18+( 76561198112870655 ) Griefer 0 Minutes Lifted JohnToaster420 ヅ(76561198328941051) 01-27-17 7 months ago 185.38.151.197
theogalfaw( 76561198347188564 ) reason 0 Minutes Permanent ✪Ted(76561198361445021) 01-27-17 7 months ago 185.38.151.197
SСѦLЄӼԌѦӍіИԌ Hyplex.co( 76561198317991648 ) 0 Minutes Permanent ✪Ted(76561198361445021) 01-27-17 7 months ago 185.38.151.197
(FR)Hug07( 76561198289727081 ) MASS RDM 30240 Minutes Lifted SD Gor(76561198352802802) 01-27-17 7 months ago loading
optic_potato hyplex.co( 76561198272236949 ) Hyplex troller fuck off 20160 Minutes Lifted NG Fr0nTeS(76561198055757257) 01-27-17 7 months ago loading
optic_potato hyplex.co( 76561198272236949 ) Fat troll 30240 Minutes Lifted SD Gor(76561198352802802) 01-27-17 7 months ago loading
JohnToaster420 ヅ( 76561198328941051 ) Im A Cunt 5 Minutes Lifted JohnToaster420 ヅ(76561198328941051) 01-27-17 7 months ago loading
Hex( 76561198294268957 ) LTAP MASS RDM 20160 Minutes Lifted SD Gor(76561198352802802) 01-27-17 7 months ago loading
Hex( 76561198294268957 ) LTAP MASS RDM 20160 Minutes Lifted SD Gor(76561198352802802) 01-27-17 7 months ago loading
Hex( 76561198294268957 ) LTAP MASS RDM 20160 Minutes Lifted SD Gor(76561198352802802) 01-27-17 7 months ago loading
JohnToaster420 ヅ( 76561198328941051 ) Minge 1 Minutes Lifted JohnToaster420 ヅ(76561198328941051) 01-27-17 7 months ago loading
Paul Carter( 76561198348119623 ) Fat troll 30240 Minutes Lifted SD Gor(76561198352802802) 01-27-17 7 months ago loading
[NRTG] NoFucksGiven [NFGL]( 76561198120926339 ) Mass Propkill 30240 Minutes Lifted SD Gor(76561198352802802) 01-27-17 7 months ago loading
GoodMorning( 76561198071201239 ) 0 Minutes Permanent (Console) 01-27-17 7 months ago 185.38.151.197
DrDoomLord( 76561198090318673 ) cya 181440 Minutes Lifted NG Fr0nTeS(76561198055757257) 01-27-17 7 months ago loading
ThatGeorgeKidda( 76561198355255107 ) 0 Minutes Permanent NG Fr0nTeS(76561198055757257) 01-27-17 7 months ago loading
ImPlayingLegit( 76561198361101298 ) Constantly Propushing Even though he has been warned 1440 Minutes Lifted ZanTronix(76561198217330591) 01-27-17 7 months ago loading
Tmashi( 76561198135963404 ) AWarn: Ban Threshold Met 30 Minutes Lifted 01-27-17 7 months ago loading
Whale Tits( 76561198027635757 ) reason 4320 Minutes Lifted jesse xd(76561198050823091) 01-27-17 7 months ago loading
Jenson( 76561198184150883 ) Mass RDM 30240 Minutes Lifted SD Gor(76561198352802802) 01-27-17 7 months ago loading
AEplays( 76561198143590812 ) CUNT 30240 Minutes Lifted SD Gor(76561198352802802) 01-27-17 7 months ago loading
joshb502( 76561198362475604 ) ropespam, ltap, disrespect 40320 Minutes Lifted NG Fr0nTeS(76561198055757257) 01-27-17 7 months ago loading
✶Krampus✶( 76561198109691763 ) Mass RDM 60 Minutes Lifted ToBzKz(76561198125737678) 01-27-17 7 months ago loading
jeg er død( 76561198088634799 ) MASS RDM CYA IN 3 WEEKS 30240 Minutes Lifted SD Gor(76561198352802802) 01-27-17 7 months ago loading
Babane( 76561198354321877 ) Trolling 30240 Minutes Lifted NG GOR(76561198352802802) 01-27-17 7 months ago loading
Jynxx( 76561198315446642 ) MASS PROP SURFING BYE 0 Minutes Permanent NG Fr0nTeS SUN ヅ(76561198205458907) 01-26-17 7 months ago loading
Specky hyplex.co( 76561198246238966 ) mass prop killing go find your friends 0 Minutes Permanent NG Fr0nTeS SUN ヅ(76561198205458907) 01-26-17 7 months ago loading
/\g.o.d-b.l.e.s.s-a.m.e.n/\( 76561198078580878 ) MASS PROP KILLING YOU GOT COUGHT 0 Minutes Permanent NG Fr0nTeS SUN ヅ(76561198205458907) 01-26-17 7 months ago loading
weeaboo faggot( 76561198023194133 ) MASS PROP KILLING 0 Minutes Permanent NG Fr0nTeS SUN ヅ(76561198205458907) 01-26-17 7 months ago loading
Papi( 76561198162287939 ) ATTANPTED TO PROPKILL LOTS OF YIMES 0 Minutes Permanent NG Fr0nTeS SUN ヅ(76561198205458907) 01-26-17 7 months ago loading
Dinky( 76561198157735200 ) Mass RDM 60 Minutes Lifted ToBzKz(76561198125737678) 01-26-17 7 months ago loading
OG dat hacker is back( 76561198060879350 ) mass PROP MINGE 30240 Minutes Lifted BelgianShadow(76561198167815527) 01-26-17 7 months ago loading
OG dat hacker is back( 76561198060879350 ) mass PROP MINGE 0 Minutes Lifted NG Riley Neurax Staff(76561198205458907) 01-26-17 7 months ago loading
DADDYNOTTHEBELT( 76561198219660723 ) cya in 2 weeks <3 20160 Minutes Lifted 140an(76561198055757257) 01-26-17 7 months ago loading
africa( 76561198073784795 ) join ya friend 60 Minutes Lifted BelgianShadow(76561198167815527) 01-26-17 7 months ago loading
Gambit( 76561198144654585 ) racist troll minge all in one 1440 Minutes Lifted Jesse(76561198050823091) 01-26-17 7 months ago loading
twitch.tv/pandeb223( 76561198183409649 ) Killing in spawn MASS RDM 300 Minutes Lifted ToBzKz(76561198125737678) 01-26-17 7 months ago loading
NG Admin Horsefighter( 76561198178009975 ) karma 1 Minutes Lifted NG GOR(76561198352802802) 01-26-17 7 months ago loading
WolfNolan( 76561198205458907 ) [ULX Voteban] Because i want to 1 Minutes Lifted NG GOR(76561198352802802) 01-26-17 7 months ago loading
๓㉫๓㉫( 76561198070301029 ) TROLL MASS RDM 17580 Minutes Lifted BelgianShadow(76561198167815527) 01-26-17 7 months ago loading
XXPLAYS( 76561198244062864 ) RDM AND AIMBOT 0 Minutes Permanent BelgianShadow(76561198167815527) 01-26-17 7 months ago loading
TiAk48( 76561198101802138 ) Minge RDM 1576 Minutes Lifted BelgianShadow(76561198167815527) 01-26-17 7 months ago loading
killerkaden123( 76561198353667584 ) RDM attempted rdm ltap troll not here to RP 29009 Minutes Lifted BelgianShadow(76561198167815527) 01-26-17 7 months ago loading
GlitchedTurtle( 76561198064651240 ) Fackk of m8 Your rdm tricks sucks 600 Minutes Lifted NG ToBzKz(76561198125737678) 01-25-17 7 months ago loading
fuk0wnd.com | nignog( 76561198094217190 ) mann stop trolling n shit 0 Minutes Lifted BelgianShadow(76561198167815527) 01-25-17 7 months ago loading
badtim123( 76561198118196526 ) calm down fam (fda) (disrespect) 60 Minutes Lifted BelgianShadow(76561198167815527) 01-25-17 7 months ago loading
Psycho( 76561198087744877 ) MINGE TROLL 2880 Minutes Lifted BelgianShadow(76561198167815527) 01-25-17 7 months ago loading
luuk14( 76561198135822747 ) troll 2880 Minutes Lifted BelgianShadow(76561198167815527) 01-25-17 7 months ago loading
killerkaden123( 76561198353667584 ) RDM attempted rdm ltap troll not here to RP 0 Minutes Lifted BelgianShadow(76561198167815527) 01-25-17 7 months ago loading
killerkaden123( 76561198353667584 ) RDMing an admin and leaving when a sit is going on 420 Minutes Lifted NG ToBzKz(76561198125737678) 01-25-17 7 months ago loading
killerkaden123( 76561198353667584 ) rdming ASNWER ME FAM 0 Minutes Lifted BelgianShadow(76561198167815527) 01-25-17 7 months ago loading
TELETUBBY( 76561198129832523 ) troll RDM 2880 Minutes Lifted BelgianShadow(76561198167815527) 01-25-17 7 months ago loading
Aqua( 76561198085260762 ) Trying to propkill in spawn and propushing an admin 120 Minutes Lifted NG ToBzKz(76561198125737678) 01-25-17 7 months ago loading
Yoshei( 76561198230075704 ) RDM and Propkill in spawn 60 Minutes Lifted NG ToBzKz(76561198125737678) 01-25-17 7 months ago loading
digsby™ⓊⓀ( 76561198170576013 ) scripts 0 Minutes Permanent BelgianShadow(76561198167815527) 01-25-17 7 months ago loading
TiAk48( 76561198101802138 ) fuck off 2870 Minutes Lifted BelgianShadow(76561198167815527) 01-25-17 7 months ago loading
TiagZz( 76561198068190885 ) fuck off 0 Minutes Lifted BelgianShadow(76561198167815527) 01-25-17 7 months ago loading
Naxaid( 76561198158210086 ) RDM X allot 10 Minutes Lifted NG Admin MirrosTV(76561198136403113) 01-25-17 7 months ago loading
vk fast( 76561198340212443 ) i don't know fam 2800 Minutes Lifted BelgianShadow(76561198167815527) 01-25-17 7 months ago loading
WolfNolan( 76561198205458907 ) IM GAY 360 Minutes Lifted NG Riley(76561198205458907) 01-24-17 7 months ago loading
[TF]TheMehdi603( 76561198173838669 ) Troll 20160 Minutes Lifted NG Fr0nTeS(76561198055757257) 01-24-17 7 months ago loading
[TF]TheMehdi603( 76561198173838669 ) troll 40320 Minutes Lifted NG Fr0nTeS(76561198055757257) 01-24-17 7 months ago loading
[TF]TheMehdi603( 76561198173838669 ) weeks 2 Minutes Lifted NG Fr0nTeS(76561198055757257) 01-24-17 7 months ago loading
XXPLAYS( 76561198244062864 ) RDM AND AIMBOT FAM 0 Minutes Permanent BelgianShadow(76561198167815527) 01-24-17 7 months ago loading
( 76561197978767841 ) Mass RDM and hacks 0 Minutes Permanent NG ToBzKz(76561198125737678) 01-24-17 7 months ago loading
[VG] EEks( 76561198145286855 ) Mass RDM 1440 Minutes Lifted NG ToBzKz(76561198125737678) 01-24-17 7 months ago loading
Logicsx( 76561198170141359 ) 0 Minutes Permanent NG Fr0nTeS(76561198055757257) 01-24-17 7 months ago loading
SwagHimself( 76561198280823325 ) ATTEMPTING TO KILL STAFF ON DUTY WILL STAFF ON DUTY 120 Minutes Lifted NG Riley(76561198205458907) 01-24-17 7 months ago loading
Apple pen.........( 76561198070301029 ) TROLL MASS RDM 0 Minutes Lifted NG Riley(76561198205458907) 01-24-17 7 months ago loading
James_974_The_Online[YSYS]( 76561198208724661 ) Mass rdm 60 Minutes Lifted BelgianShadow(76561198167815527) 01-24-17 7 months ago loading
James_974_The_Online[YSYS]( 76561198208724661 ) Terror in Spawn 0 Minutes Lifted NG Riley(76561198205458907) 01-24-17 7 months ago loading
track( 76561197975007384 ) Leaving when in a sit and propkilling 60 Minutes Lifted NG ToBzKz(76561198125737678) 01-24-17 7 months ago loading
( 76561198093791869 ) 0 Minutes Lifted
( 76561198340807163 ) 0 Minutes Lifted
( 76561198140909443 ) 0 Minutes Lifted
( 76561198071201239 ) 0 Minutes Lifted
( 76561198172209047 ) 0 Minutes Lifted
( 76561198087584507 ) 0 Minutes Lifted
( 76561198258687912 ) 0 Minutes Lifted
( 76561198069011074 ) 0 Minutes Lifted
( 76561198063823848 ) 0 Minutes Lifted
( 76561198125826454 ) 0 Minutes Lifted
( 76561198177292545 ) 0 Minutes Lifted
( 76561198112870655 ) 0 Minutes Lifted
( 76561198097768249 ) 0 Minutes Lifted
( 76561198111452895 ) 0 Minutes Lifted
( 76561198076268031 ) 0 Minutes Lifted
( 76561198071480926 ) 0 Minutes Lifted
( 76561198274198296 ) 0 Minutes Lifted
( 76561198167707520 ) 0 Minutes Lifted
( 76561198116525850 ) 0 Minutes Lifted
( 76561198198535273 ) 0 Minutes Lifted
( 76561198364929388 ) 0 Minutes Lifted
( 76561198031944507 ) 0 Minutes Lifted
( 76561198345481422 ) 0 Minutes Lifted
( 76561198218468645 ) 0 Minutes Lifted
( 76561198151881149 ) 0 Minutes Lifted
( 76561198273071161 ) 0 Minutes Lifted
( 76561198095370354 ) 0 Minutes Lifted
( 76561197993874966 ) 0 Minutes Lifted
( 76561198166132143 ) 0 Minutes Lifted
( 76561198316505939 ) 0 Minutes Lifted
( 76561198176675973 ) 0 Minutes Lifted
( 76561198065837669 ) 0 Minutes Lifted
( 76561198125737678 ) 0 Minutes Lifted
( 76561197969355629 ) 0 Minutes Lifted
( 76561198164109487 ) 0 Minutes Lifted